Time;durP1;ratioP1;P1;durP2;ratioP2;P2;SDS_P1;SDS_P2;PMS_P1;PMS_P2;Temp;Humidity;BMP_temperature;BMP_pressure;BME280_temperature;BME280_humidity;BME280_pressure;Samples;Min_cycle;Max_cycle;Signal;HPM_P1;HPM_P2
2023/10/17 00:01:20;;;;;;;9.18;5.30;;;7.40;99.90;;;;;;5111792;28;20075;-52
2023/10/17 00:03:46;;;;;;;8.10;5.75;;;7.40;99.90;;;;;;5111962;28;20508;-49
2023/10/17 00:06:16;;;;;;;8.75;5.63;;;7.40;99.90;;;;;;5112097;28;20039;-52
2023/10/17 00:08:50;;;;;;;8.15;4.72;;;7.40;99.90;;;;;;5112422;28;20044;-50
2023/10/17 00:11:17;;;;;;;7.57;5.50;;;7.40;99.90;;;;;;5095101;28;20426;-51
2023/10/17 00:13:59;;;;;;;13.15;6.32;;;7.40;99.90;;;;;;5111812;28;20047;-51
2023/10/17 00:16:26;;;;;;;12.32;6.53;;;7.40;99.90;;;;;;5111907;28;20039;-49
2023/10/17 00:18:52;;;;;;;10.35;5.93;;;7.30;99.90;;;;;;5112223;28;20065;-49
2023/10/17 00:21:26;;;;;;;7.82;5.60;;;7.40;99.90;;;;;;5111678;28;20028;-48
2023/10/17 00:23:52;;;;;;;10.40;5.63;;;7.40;99.90;;;;;;5111927;28;20520;-52
2023/10/17 00:26:18;;;;;;;9.02;5.72;;;7.40;99.90;;;;;;5111600;28;20085;-50
2023/10/17 00:28:48;;;;;;;10.48;5.93;;;7.40;99.90;;;;;;5111672;28;20039;-48
2023/10/17 00:31:14;;;;;;;9.30;6.07;;;7.50;99.90;;;;;;5111825;28;20051;-49
2023/10/17 00:33:41;;;;;;;11.05;6.72;;;7.50;99.90;;;;;;5111672;28;20032;-49
2023/10/17 00:36:14;;;;;;;9.95;5.50;;;7.50;99.90;;;;;;5112021;28;20023;-48
2023/10/17 00:38:43;;;;;;;11.20;6.28;;;7.50;99.90;;;;;;5111625;28;20051;-50
2023/10/17 00:41:10;;;;;;;9.30;6.57;;;7.60;99.90;;;;;;5111789;28;20398;-47
2023/10/17 00:43:37;;;;;;;12.63;6.60;;;7.60;99.90;;;;;;5111826;28;20043;-49
2023/10/17 00:46:07;;;;;;;7.55;5.40;;;7.70;99.90;;;;;;5113196;28;20111;-49
2023/10/17 00:48:34;;;;;;;11.70;5.10;;;7.70;99.90;;;;;;5115913;28;20405;-52
2023/10/17 00:51:09;;;;;;;7.78;4.65;;;7.70;99.90;;;;;;5115526;28;20070;-48
2023/10/17 00:53:40;;;;;;;8.60;5.55;;;7.80;99.90;;;;;;5115433;28;20043;-49
2023/10/17 00:56:07;;;;;;;11.10;5.20;;;7.80;99.90;;;;;;5115182;28;20038;-51
2023/10/17 00:58:34;;;;;;;11.70;5.47;;;7.70;99.90;;;;;;5115578;28;20089;-50
2023/10/17 01:03:31;;;;;;;6.70;5.55;;;7.70;99.90;;;;;;5113627;28;20056;-48
2023/10/17 01:05:57;;;;;;;10.63;5.22;;;7.80;99.90;;;;;;5115243;28;20039;-47
2023/10/17 01:08:46;;;;;;;10.77;4.88;;;7.80;99.90;;;;;;5115471;28;20406;-52
2023/10/17 01:11:21;;;;;;;9.77;4.70;;;7.80;99.90;;;;;;5115322;28;20046;-52
2023/10/17 01:13:52;;;;;;;8.18;4.50;;;7.80;99.90;;;;;;5115278;28;20507;-51
2023/10/17 01:16:19;;;;;;;7.72;4.50;;;7.80;99.90;;;;;;5115324;28;20039;-51
2023/10/17 01:18:45;;;;;;;9.43;3.90;;;7.80;99.90;;;;;;5115134;28;20059;-52
2023/10/17 01:21:17;;;;;;;6.50;3.95;;;7.80;99.90;;;;;;5115074;28;20518;-48
2023/10/17 01:23:44;;;;;;;11.48;3.80;;;7.80;99.90;;;;;;5115083;28;20043;-50
2023/10/17 01:26:12;;;;;;;8.10;4.05;;;7.70;99.90;;;;;;5096785;28;20032;-49
2023/10/17 01:28:38;;;;;;;8.02;4.03;;;7.80;99.90;;;;;;5114879;28;20071;-49
2023/10/17 01:31:05;;;;;;;8.30;4.53;;;7.90;99.90;;;;;;5114824;28;20505;-51
2023/10/17 01:33:31;;;;;;;8.52;4.55;;;7.80;99.90;;;;;;5114930;28;20040;-49
2023/10/17 01:35:58;;;;;;;6.97;4.97;;;7.80;99.90;;;;;;5114600;28;20051;-52
2023/10/17 01:38:26;;;;;;;6.82;4.47;;;7.70;99.90;;;;;;5114688;28;20054;-52
2023/10/17 01:41:01;;;;;;;7.57;4.13;;;7.80;99.90;;;;;;5114669;28;20040;-51
2023/10/17 01:43:30;;;;;;;8.70;4.20;;;7.80;99.90;;;;;;5114689;28;20078;-51
2023/10/17 01:46:01;;;;;;;10.93;5.30;;;7.80;99.90;;;;;;5114464;28;20039;-51
2023/10/17 01:48:27;;;;;;;8.90;4.95;;;7.70;99.90;;;;;;5114928;28;20074;-50
2023/10/17 01:50:53;;;;;;;9.10;4.80;;;7.70;99.90;;;;;;5114516;28;20036;-50
2023/10/17 01:53:19;;;;;;;8.00;4.63;;;7.70;99.90;;;;;;5114703;28;20036;-51
2023/10/17 01:56:02;;;;;;;6.68;4.18;;;7.70;99.90;;;;;;5113857;28;20503;-50
2023/10/17 01:58:30;;;;;;;7.05;4.82;;;7.70;99.90;;;;;;5100775;28;20040;-51
2023/10/17 02:00:57;;;;;;;6.35;4.43;;;7.70;99.90;;;;;;5095965;28;20036;-48
2023/10/17 02:03:23;;;;;;;6.75;4.85;;;7.60;99.90;;;;;;5114159;28;20039;-50
2023/10/17 02:05:49;;;;;;;7.43;4.28;;;7.60;99.90;;;;;;5114228;28;20039;-51
2023/10/17 02:08:14;;;;;;;7.47;4.45;;;7.60;99.90;;;;;;5114147;28;20039;-51
2023/10/17 02:10:40;;;;;;;7.72;4.63;;;7.50;99.90;;;;;;5114029;28;20043;-47
2023/10/17 02:13:07;;;;;;;6.07;4.45;;;7.40;99.90;;;;;;5113990;28;20103;-47
2023/10/17 02:15:34;;;;;;;7.65;4.55;;;7.40;99.90;;;;;;5114027;28;20493;-49
2023/10/17 02:18:06;;;;;;;7.05;4.88;;;7.50;99.90;;;;;;5113935;28;20031;-47
2023/10/17 02:20:34;;;;;;;7.18;4.60;;;7.50;99.90;;;;;;5113967;28;20036;-47
2023/10/17 02:23:02;;;;;;;8.30;4.70;;;7.50;99.90;;;;;;5095677;28;20417;-47
2023/10/17 02:25:32;;;;;;;6.65;4.43;;;7.40;99.90;;;;;;5113704;28;20472;-47
2023/10/17 02:27:59;;;;;;;9.15;5.13;;;7.40;99.90;;;;;;5114009;28;20038;-48
2023/10/17 02:30:24;;;;;;;6.72;4.53;;;7.50;99.90;;;;;;5113521;28;20034;-51
2023/10/17 02:32:56;;;;;;;9.07;4.82;;;7.40;99.90;;;;;;5113670;28;20039;-46
2023/10/17 02:35:39;;;;;;;6.50;4.00;;;7.30;99.90;;;;;;5113632;28;20079;-46
2023/10/17 02:38:05;;;;;;;4.72;4.10;;;7.30;99.90;;;;;;5113381;28;20535;-48
2023/10/17 02:40:37;;;;;;;5.55;4.30;;;7.30;99.90;;;;;;5113564;28;20051;-47
2023/10/17 02:43:03;;;;;;;8.02;3.92;;;7.20;99.90;;;;;;5113596;28;20043;-48
2023/10/17 02:45:29;;;;;;;7.63;4.22;;;7.10;99.90;;;;;;5113598;28;20035;-48
2023/10/17 02:47:57;;;;;;;7.28;4.25;;;7.10;99.90;;;;;;5113202;28;20031;-49
2023/10/17 02:52:59;;;;;;;7.88;3.90;;;7.00;99.90;;;;;;5113373;28;20071;-51
2023/10/17 02:55:25;;;;;;;8.43;3.53;;;6.90;99.90;;;;;;5113287;28;20032;-52
2023/10/17 02:57:52;;;;;;;6.63;3.60;;;6.90;99.90;;;;;;5112973;28;20035;-48
2023/10/17 03:00:47;;;;;;;7.90;3.55;;;7.00;99.90;;;;;;5113227;28;20039;-48
2023/10/17 03:03:14;;;;;;;7.50;3.47;;;6.90;99.90;;;;;;5112319;28;20397;-49
2023/10/17 03:05:44;;;;;;;17.35;3.72;;;6.80;99.90;;;;;;5095062;28;20036;-49
2023/10/17 03:08:15;;;;;;;6.90;3.83;;;6.90;99.90;;;;;;5112616;28;20078;-48
2023/10/17 03:10:42;;;;;;;4.63;3.47;;;6.80;99.90;;;;;;5113298;28;20043;-48
2023/10/17 03:13:56;;;;;;;7.88;4.22;;;6.70;99.90;;;;;;5112637;28;20032;-51
2023/10/17 03:15:56;;;;;;;6.25;4.90;;;6.80;99.90;;;;;;5105233;28;20075;-49
2023/10/17 03:18:22;;;;;;;10.82;4.75;;;6.80;99.90;;;;;;5112571;28;20490;-48
2023/10/17 03:20:51;;;;;;;11.85;6.72;;;6.80;99.90;;;;;;5112380;28;20043;-52
2023/10/17 03:23:28;;;;;;;11.15;6.00;;;6.80;99.90;;;;;;5112864;28;20041;-51
2023/10/17 03:26:00;;;;;;;9.57;6.03;;;6.70;99.90;;;;;;5112640;28;20036;-49
2023/10/17 03:28:33;;;;;;;8.48;5.80;;;6.70;99.90;;;;;;5094319;28;20032;-49
2023/10/17 03:30:59;;;;;;;11.50;6.43;;;6.90;99.90;;;;;;5112628;28;20114;-51
2023/10/17 03:33:32;;;;;;;9.05;5.47;;;6.90;99.90;;;;;;5112322;28;20104;-48
2023/10/17 03:38:31;;;;;;;8.05;4.55;;;6.80;99.90;;;;;;5100046;28;20051;-53
2023/10/17 03:41:06;;;;;;;7.13;4.13;;;6.90;99.90;;;;;;5074118;28;20390;-50
2023/10/17 03:43:38;;;;;;;7.43;3.53;;;6.80;99.90;;;;;;5091888;28;20043;-52
2023/10/17 03:46:07;;;;;;;7.45;3.83;;;6.80;99.90;;;;;;5078155;28;20118;-47
2023/10/17 03:48:36;;;;;;;6.60;3.35;;;6.70;99.90;;;;;;5091876;28;20028;-50
2023/10/17 03:53:32;;;;;;;;;;;6.70;99.90;;;;;;5074261;28;20059;-51
2023/10/17 03:56:01;;;;;;;4.85;3.58;;;6.80;99.90;;;;;;5091664;28;19916;-50
2023/10/17 04:01:10;;;;;;;5.18;3.80;;;6.90;99.90;;;;;;5091601;28;20040;-48
2023/10/17 04:03:37;;;;;;;5.07;3.90;;;6.90;99.90;;;;;;5082174;28;20122;-52
2023/10/17 04:08:48;;;;;;;5.22;3.92;;;6.90;99.90;;;;;;5091744;28;20079;-52
2023/10/17 04:13:57;;;;;;;7.50;3.53;;;6.90;99.90;;;;;;5091488;28;20547;-49
2023/10/17 04:16:34;;;;;;;5.43;3.60;;;7.00;99.90;;;;;;5091747;28;20044;-52
2023/10/17 04:19:01;;;;;;;6.90;3.42;;;7.00;99.90;;;;;;5079735;28;20501;-49
2023/10/17 04:21:36;;;;;;;8.02;3.45;;;7.00;99.90;;;;;;5098171;28;20047;-50
2023/10/17 04:24:05;;;;;;;5.88;3.78;;;7.10;99.90;;;;;;5084881;28;20044;-54
2023/10/17 04:26:34;;;;;;;;;;;7.10;99.90;;;;;;5098876;28;20040;-53
2023/10/17 04:29:11;;;;;;;10.10;3.92;;;7.10;99.90;;;;;;5098410;28;20239;-52
2023/10/17 04:31:43;;;;;;;4.65;3.40;;;7.10;99.90;;;;;;5098138;28;20043;-51
2023/10/17 04:34:14;;;;;;;5.60;3.58;;;7.10;99.90;;;;;;5084030;28;20389;-52
2023/10/17 04:36:41;;;;;;;9.65;4.07;;;7.10;99.90;;;;;;5080076;28;20040;-48
2023/10/17 04:44:25;;;;;;;7.22;4.13;;;7.20;99.90;;;;;;5098201;28;20062;-52
2023/10/17 04:49:31;;;;;;;9.20;3.70;;;7.20;99.90;;;;;;5098184;28;20044;-51
2023/10/17 04:52:06;;;;;;;7.68;3.78;;;7.20;99.90;;;;;;5084424;28;20075;-50
2023/10/17 04:57:04;;;;;;;6.90;3.70;;;7.20;99.90;;;;;;5084027;28;20122;-51
2023/10/17 06:18:58;;;;;;;7.00;4.60;;;7.70;99.90;;;;;;5093815;28;20389;-52
2023/10/17 06:21:35;;;;;;;10.32;4.90;;;7.80;99.90;;;;;;5093613;28;20040;-52
2023/10/17 06:24:32;;;;;;;7.43;4.32;;;7.80;99.90;;;;;;5067133;28;20120;-50
2023/10/17 06:26:59;;;;;;;12.27;6.68;;;7.80;99.90;;;;;;5093030;28;20070;-50
2023/10/17 06:32:04;;;;;;;8.73;6.57;;;7.90;99.90;;;;;;5079625;28;20036;-51
2023/10/17 06:34:31;;;;;;;7.75;5.20;;;8.00;99.90;;;;;;5093400;28;20047;-51
2023/10/17 06:37:07;;;;;;;11.25;4.93;;;7.90;99.90;;;;;;5075133;28;20474;-49
2023/10/17 06:39:45;;;;;;;11.88;5.70;;;8.00;99.90;;;;;;5093216;28;20486;-50
2023/10/17 06:42:14;;;;;;;8.57;4.90;;;8.10;99.90;;;;;;5092774;28;20040;-50
2023/10/17 06:47:31;;;;;;;10.82;6.10;;;8.10;99.90;;;;;;5093048;28;20132;-50
2023/10/17 06:55:28;;;;;;;11.30;5.97;;;8.20;99.90;;;;;;5092879;28;20044;-50
2023/10/17 06:57:57;;;;;;;15.32;7.70;;;8.20;99.90;;;;;;5092893;28;20040;-48
2023/10/17 07:02:56;;;;;;;15.23;7.22;;;8.30;99.90;;;;;;5092955;28;20131;-51
2023/10/17 07:05:22;;;;;;;12.30;6.53;;;8.30;99.90;;;;;;5092759;28;20743;-50
2023/10/17 07:07:59;;;;;;;15.13;7.43;;;8.40;99.90;;;;;;5092757;28;20036;-50
2023/10/17 07:13:39;;;;;;;12.40;6.82;;;8.50;99.90;;;;;;5092536;28;20054;-48
2023/10/17 07:16:11;;;;;;;11.20;5.35;;;8.60;99.90;;;;;;5083792;28;20055;-48
2023/10/17 07:18:47;;;;;;;9.52;4.90;;;8.60;99.90;;;;;;5092421;28;20032;-49
2023/10/17 07:21:17;;;;;;;11.57;4.07;;;8.70;99.90;;;;;;5092309;28;20206;-52
2023/10/17 07:23:48;;;;;;;7.18;3.40;;;8.70;99.90;;;;;;5092167;28;20093;-52
2023/10/17 07:26:18;;;;;;;11.98;3.90;;;8.70;99.90;;;;;;5092447;28;20036;-49
2023/10/17 07:28:50;;;;;;;6.80;3.20;;;8.70;99.90;;;;;;5092016;28;20036;-51
2023/10/17 07:31:20;;;;;;;8.27;3.67;;;8.80;99.90;;;;;;5092190;28;20390;-49
2023/10/17 07:36:32;;;;;;;7.68;3.30;;;8.80;99.90;;;;;;5050428;28;20040;-50
2023/10/17 07:38:58;;;;;;;8.60;3.30;;;8.80;99.90;;;;;;5108935;28;20058;-49
2023/10/17 07:41:36;;;;;;;11.68;3.70;;;9.00;99.90;;;;;;5112462;28;20054;-47
2023/10/17 07:44:19;;;;;;;10.50;3.88;;;9.00;99.90;;;;;;5112171;28;20555;-48
2023/10/17 07:46:48;;;;;;;10.38;3.92;;;9.00;99.90;;;;;;5112356;28;20042;-46
2023/10/17 07:49:16;;;;;;;10.57;4.50;;;9.00;99.90;;;;;;5112302;28;20039;-46
2023/10/17 07:51:42;;;;;;;15.40;4.32;;;9.00;99.90;;;;;;5112309;28;20490;-49
2023/10/17 07:54:09;;;;;;;9.32;4.70;;;8.90;99.90;;;;;;5111359;28;20127;-51
2023/10/17 07:56:34;;;;;;;14.25;4.93;;;8.90;99.90;;;;;;5112100;28;20062;-46
2023/10/17 07:59:08;;;;;;;10.63;4.47;;;8.90;99.90;;;;;;5112176;28;20477;-50
2023/10/17 08:01:44;;;;;;;8.80;4.82;;;8.90;99.90;;;;;;5112546;28;20456;-47
2023/10/17 08:04:17;;;;;;;13.98;4.50;;;8.90;99.90;;;;;;5112071;28;20512;-49
2023/10/17 08:06:44;;;;;;;12.75;5.88;;;8.90;99.90;;;;;;5112440;28;20043;-50
2023/10/17 08:11:50;;;;;;;9.88;5.32;;;9.00;99.90;;;;;;5111908;28;20035;-48
2023/10/17 08:14:18;;;;;;;10.60;4.78;;;8.90;99.90;;;;;;5112121;28;20120;-47
2023/10/17 08:16:44;;;;;;;12.18;5.88;;;9.00;99.90;;;;;;5112035;28;20122;-47
2023/10/17 08:19:13;;;;;;;9.13;5.25;;;9.00;99.90;;;;;;5111920;28;20089;-48
2023/10/17 08:24:13;;;;;;;8.55;4.60;;;9.20;99.90;;;;;;5112026;28;19923;-49
2023/10/17 08:26:42;;;;;;;11.32;4.80;;;9.30;99.90;;;;;;5112050;28;20043;-48
2023/10/17 08:29:11;;;;;;;;;;;9.40;99.90;;;;;;5112270;28;20094;-51
2023/10/17 08:31:43;;;;;;;11.27;5.07;;;9.50;99.90;;;;;;5111872;28;19916;-49
2023/10/17 08:34:12;;;;;;;11.13;4.85;;;9.60;99.90;;;;;;5093646;28;20412;-48
2023/10/17 08:41:57;;;;;;;10.77;3.90;;;10.90;99.90;;;;;;5091465;28;20127;-47
2023/10/17 08:44:31;;;;;;;5.93;3.03;;;11.50;99.90;;;;;;5091180;28;20145;-49
2023/10/17 08:46:57;;;;;;;5.22;2.80;;;11.80;99.90;;;;;;5091554;28;20044;-48
2023/10/17 08:49:27;;;;;;;4.70;2.40;;;11.90;99.90;;;;;;5091146;28;20516;-45
2023/10/17 08:51:56;;;;;;;5.15;2.42;;;12.00;99.90;;;;;;5091404;28;20036;-47
2023/10/17 08:54:28;;;;;;;4.68;2.33;;;12.00;99.90;;;;;;5091476;28;20036;-48
2023/10/17 08:56:54;;;;;;;5.93;2.38;;;12.10;99.90;;;;;;5073112;28;20504;-49
2023/10/17 09:04:52;;;;;;;3.42;1.70;;;12.40;99.90;;;;;;5090991;28;20047;-48
2023/10/17 09:08:34;;;;;;;4.25;1.70;;;12.30;99.90;;;;;;5094631;28;20085;-48
2023/10/17 09:10:21;;;;;;;6.95;2.10;;;12.30;99.90;;;;;;5072902;28;20101;-47
2023/10/17 09:15:59;;;;;;;4.63;1.42;;;12.20;99.90;;;;;;5094860;28;20048;-50
2023/10/17 09:18:31;;;;;;;4.88;1.73;;;12.10;99.90;;;;;;5095032;28;20119;-51
2023/10/17 09:21:03;;;;;;;4.93;1.48;;;12.10;99.90;;;;;;5094790;28;20122;-51
2023/10/17 09:23:30;;;;;;;5.32;1.38;;;12.10;99.90;;;;;;5094804;28;20070;-49
2023/10/17 09:26:07;;;;;;;7.13;2.45;;;12.10;99.90;;;;;;5094662;28;20105;-48
2023/10/17 09:28:35;;;;;;;5.47;1.83;;;12.10;99.90;;;;;;5081816;28;20074;-50
2023/10/17 09:31:08;;;;;;;4.93;1.88;;;12.20;99.90;;;;;;5094633;28;20074;-46
2023/10/17 09:33:43;;;;;;;5.70;1.90;;;12.20;99.90;;;;;;5094554;28;20538;-51
2023/10/17 09:36:09;;;;;;;4.07;2.00;;;12.20;99.90;;;;;;5076293;28;20128;-48
2023/10/17 09:38:41;;;;;;;7.15;2.20;;;12.20;99.90;;;;;;5094272;28;20052;-46
2023/10/17 09:41:08;;;;;;;4.07;2.00;;;12.20;99.90;;;;;;5094377;28;20521;-47
2023/10/17 09:43:37;;;;;;;4.72;1.83;;;12.30;99.90;;;;;;5094347;28;20036;-47
2023/10/17 09:46:09;;;;;;;5.78;2.05;;;12.30;99.90;;;;;;5094388;28;20040;-46
2023/10/17 09:48:41;;;;;;;5.32;2.28;;;12.30;99.90;;;;;;5094121;28;20036;-46
2023/10/17 09:51:13;;;;;;;5.90;2.05;;;12.30;99.90;;;;;;5094366;28;20075;-48
2023/10/17 09:53:40;;;;;;;2.78;1.27;;;12.30;99.90;;;;;;5094201;28;20092;-48
2023/10/17 09:56:17;;;;;;;5.20;1.20;;;12.40;99.90;;;;;;5094399;28;20063;-45
2023/10/17 09:58:52;;;;;;;6.25;1.63;;;12.40;99.90;;;;;;5094028;28;20442;-47
2023/10/17 10:01:24;;;;;;;4.57;1.20;;;12.50;99.90;;;;;;5094070;28;20036;-48
2023/10/17 10:03:58;;;;;;;3.60;1.58;;;12.60;99.90;;;;;;5093893;28;20423;-44
2023/10/17 10:06:25;;;;;;;6.85;1.42;;;12.60;99.90;;;;;;5094052;28;20048;-46
2023/10/17 10:09:14;;;;;;;4.80;1.30;;;12.60;99.90;;;;;;5071650;28;20118;-50
2023/10/17 10:11:54;;;;;;;5.57;1.23;;;12.60;99.90;;;;;;5080379;28;20161;-49
2023/10/17 10:14:23;;;;;;;3.85;1.02;;;12.60;99.90;;;;;;5076215;28;20044;-51
2023/10/17 10:16:50;;;;;;;3.08;1.33;;;12.60;99.90;;;;;;5093050;28;20487;-50
2023/10/17 10:19:16;;;;;;;5.20;1.45;;;12.70;99.90;;;;;;5093621;28;20035;-48
2023/10/17 10:21:59;;;;;;;5.43;1.70;;;12.70;99.90;;;;;;5093542;28;20036;-47
2023/10/17 10:24:26;;;;;;;3.28;1.58;;;12.70;99.90;;;;;;5093489;28;20439;-51
2023/10/17 10:27:10;;;;;;;7.95;1.70;;;12.60;99.90;;;;;;5093523;28;20047;-49
2023/10/17 10:29:37;;;;;;;5.60;1.63;;;12.60;99.90;;;;;;5093638;28;20190;-47
2023/10/17 10:32:06;;;;;;;3.95;1.48;;;12.70;99.90;;;;;;5093436;28;20431;-46
2023/10/17 10:34:35;;;;;;;2.80;1.40;;;12.60;99.90;;;;;;5093317;28;20036;-47
2023/10/17 10:37:03;;;;;;;6.22;2.20;;;12.60;99.90;;;;;;5092996;28;20036;-49
2023/10/17 10:39:30;;;;;;;4.40;1.40;;;12.60;99.90;;;;;;5112332;28;20101;-45
2023/10/17 10:41:58;;;;;;;3.05;1.55;;;12.70;99.90;;;;;;5095085;28;20067;-46
2023/10/17 10:44:25;;;;;;;8.38;1.85;;;12.70;99.90;;;;;;5113673;28;20036;-47
2023/10/17 10:46:52;;;;;;;3.22;1.50;;;12.70;99.90;;;;;;5113549;28;20123;-47
2023/10/17 10:49:25;;;;;;;6.72;1.33;;;12.80;99.90;;;;;;5113400;28;20046;-48
2023/10/17 10:51:52;;;;;;;3.97;1.40;;;12.90;99.90;;;;;;5113689;28;20035;-50
2023/10/17 10:54:18;;;;;;;6.68;2.25;;;12.90;99.90;;;;;;5113354;28;20076;-47
2023/10/17 10:56:51;;;;;;;3.55;1.52;;;12.90;99.90;;;;;;5095019;28;20401;-47
2023/10/17 10:59:23;;;;;;;6.22;1.85;;;13.00;99.90;;;;;;5113061;28;20035;-47
2023/10/17 11:01:49;;;;;;;2.58;1.17;;;13.00;99.90;;;;;;5113435;28;20075;-48
2023/10/17 11:04:15;;;;;;;4.82;1.30;;;13.10;99.90;;;;;;5113131;28;20582;-50
2023/10/17 11:06:41;;;;;;;4.78;1.73;;;13.20;99.90;;;;;;5113231;28;20043;-51
2023/10/17 11:09:16;;;;;;;8.07;1.50;;;13.20;99.90;;;;;;5113169;28;20051;-47
2023/10/17 11:11:50;;;;;;;6.40;1.40;;;13.20;99.90;;;;;;5110185;28;20082;-48
2023/10/17 11:14:16;;;;;;;5.22;1.42;;;13.20;99.90;;;;;;5112901;28;20115;-48
2023/10/17 11:16:42;;;;;;;3.70;1.17;;;13.20;99.90;;;;;;5094768;28;20366;-48
2023/10/17 11:19:19;;;;;;;5.18;1.23;;;13.30;99.90;;;;;;5094728;28;20023;-49
2023/10/17 11:21:52;;;;;;;3.13;1.17;;;13.40;99.90;;;;;;5113079;28;20457;-46
2023/10/17 11:24:19;;;;;;;5.18;1.42;;;13.50;99.90;;;;;;5112892;28;20039;-45
2023/10/17 11:26:45;;;;;;;3.15;1.20;;;13.50;99.90;;;;;;5112497;28;20497;-47
2023/10/17 11:29:12;;;;;;;6.78;1.58;;;13.50;99.90;;;;;;5111421;28;20558;-45
2023/10/17 11:31:41;;;;;;;4.32;1.85;;;13.60;99.90;;;;;;5112923;28;20035;-47
2023/10/17 11:34:07;;;;;;;4.88;1.45;;;13.60;99.90;;;;;;5112459;28;20047;-47
2023/10/17 11:36:46;;;;;;;4.43;1.00;;;13.70;99.90;;;;;;5112723;28;20069;-48
2023/10/17 11:39:15;;;;;;;1.95;1.10;;;13.80;99.90;;;;;;5112319;28;20040;-47
2023/10/17 11:41:46;;;;;;;;;;;13.90;99.90;;;;;;5113013;28;20039;-45
2023/10/17 11:44:13;;;;;;;4.07;1.50;;;13.90;99.90;;;;;;5112176;28;19919;-47
2023/10/17 11:46:38;;;;;;;3.15;1.05;;;13.90;99.90;;;;;;5112450;28;20047;-48
2023/10/17 11:49:28;;;;;;;6.78;1.50;;;13.80;99.90;;;;;;5112423;28;20435;-48
2023/10/17 11:52:01;;;;;;;6.22;1.42;;;14.00;99.90;;;;;;5112362;28;20493;-47
2023/10/17 11:54:27;;;;;;;4.95;1.48;;;13.90;99.90;;;;;;5111974;28;20040;-48
2023/10/17 11:56:56;;;;;;;3.45;1.20;;;13.90;99.90;;;;;;5112473;28;20036;-47
2023/10/17 11:59:22;;;;;;;;;;;14.00;99.90;;;;;;5094311;28;20027;-47
2023/10/17 12:01:54;;;;;;;5.43;1.25;;;14.00;99.90;;;;;;5112106;28;19916;-47
2023/10/17 12:04:20;;;;;;;4.95;1.50;;;14.10;99.90;;;;;;5112137;28;20044;-47
2023/10/17 12:06:47;;;;;;;5.00;1.25;;;14.20;99.90;;;;;;5112213;28;20100;-50
2023/10/17 12:11:52;;;;;;;4.30;1.35;;;14.30;99.90;;;;;;5112144;28;20568;-51
2023/10/17 12:14:22;;;;;;;2.38;1.00;;;14.40;99.90;;;;;;5112048;28;20100;-48
2023/10/17 12:16:54;;;;;;;8.50;1.73;;;14.20;99.90;;;;;;5111737;28;20085;-48
2023/10/17 12:19:21;;;;;;;2.72;1.30;;;14.50;99.90;;;;;;5112046;28;20492;-49
2023/10/17 12:21:50;;;;;;;4.18;1.40;;;14.40;99.90;;;;;;5111894;28;20031;-46
2023/10/17 12:24:28;;;;;;;4.72;1.25;;;14.40;99.90;;;;;;5112071;28;20401;-49
2023/10/17 12:26:57;;;;;;;5.32;2.08;;;14.40;99.90;;;;;;5111751;28;20050;-46
2023/10/17 12:29:25;;;;;;;5.28;1.30;;;14.30;99.90;;;;;;5111820;28;20032;-51
2023/10/17 12:32:01;;;;;;;4.72;1.90;;;14.40;99.90;;;;;;5111846;28;20040;-49
2023/10/17 12:34:28;;;;;;;7.70;1.83;;;14.30;99.90;;;;;;5111800;28;20386;-51
2023/10/17 12:36:54;;;;;;;3.05;1.58;;;14.40;99.90;;;;;;5111846;28;20042;-47
2023/10/17 12:39:21;;;;;;;4.05;1.42;;;14.40;99.90;;;;;;5111487;28;20482;-46
2023/10/17 12:41:48;;;;;;;7.60;1.40;;;14.40;99.90;;;;;;5114780;28;20110;-48
2023/10/17 12:44:20;;;;;;;5.07;1.73;;;14.50;99.90;;;;;;5115911;28;20363;-48
2023/10/17 12:46:46;;;;;;;2.75;1.30;;;14.40;99.90;;;;;;5115993;28;20485;-50
2023/10/17 12:49:12;;;;;;;8.57;1.60;;;14.40;99.90;;;;;;5115831;28;20122;-47
2023/10/17 12:51:39;;;;;;;4.38;1.55;;;14.40;99.90;;;;;;5097486;28;20122;-50
2023/10/17 12:54:07;;;;;;;2.20;1.42;;;14.30;99.90;;;;;;5080225;28;20344;-48
2023/10/17 12:56:36;;;;;;;7.55;1.70;;;14.30;99.90;;;;;;5115578;28;20039;-45
2023/10/17 12:59:03;;;;;;;6.38;1.75;;;14.30;99.90;;;;;;5116041;28;20150;-47
2023/10/17 13:01:29;;;;;;;2.75;1.45;;;14.30;99.90;;;;;;5115885;28;20031;-49
2023/10/17 13:03:57;;;;;;;6.32;1.70;;;14.20;99.90;;;;;;5115691;28;20089;-46
2023/10/17 13:06:27;;;;;;;4.10;1.58;;;14.30;99.90;;;;;;5115676;28;20427;-50
2023/10/17 13:08:56;;;;;;;2.83;1.23;;;14.30;99.90;;;;;;5115457;28;20085;-46
2023/10/17 13:11:28;;;;;;;5.75;1.85;;;14.20;99.90;;;;;;5115341;28;20403;-52
2023/10/17 13:13:55;;;;;;;2.97;1.27;;;14.20;99.90;;;;;;5115472;28;20075;-51
2023/10/17 13:16:23;;;;;;;6.63;1.50;;;14.10;99.90;;;;;;5115263;28;20074;-46
2023/10/17 13:18:50;;;;;;;3.95;1.50;;;14.20;99.90;;;;;;5115160;28;20096;-50
2023/10/17 13:21:17;;;;;;;4.32;1.30;;;14.20;99.90;;;;;;5115256;28;20431;-47
2023/10/17 13:23:46;;;;;;;2.72;1.25;;;14.20;99.90;;;;;;5115018;28;20389;-50
2023/10/17 13:26:14;;;;;;;2.15;1.30;;;14.20;99.90;;;;;;5115229;28;20047;-51
2023/10/17 13:28:41;;;;;;;2.20;1.45;;;14.10;99.90;;;;;;5114895;28;20032;-53
2023/10/17 13:31:16;;;;;;;8.02;1.83;;;14.10;99.90;;;;;;5096800;28;20486;-48
2023/10/17 13:33:43;;;;;;;2.78;1.50;;;14.10;99.90;;;;;;5115021;28;20490;-48
2023/10/17 13:36:28;;;;;;;4.18;1.80;;;14.10;99.90;;;;;;5115029;28;20557;-48
2023/10/17 13:38:54;;;;;;;5.82;1.45;;;14.10;99.90;;;;;;5114850;28;20431;-47
2023/10/17 13:41:21;;;;;;;5.72;1.63;;;14.00;99.90;;;;;;5114927;28;20036;-46
2023/10/17 13:43:48;;;;;;;4.60;1.33;;;14.00;99.90;;;;;;5114677;28;20074;-51
2023/10/17 13:46:16;;;;;;;3.40;1.30;;;14.00;99.90;;;;;;5114850;28;20362;-46
2023/10/17 13:48:48;;;;;;;3.75;0.95;;;14.10;99.90;;;;;;5114597;28;20059;-45
2023/10/17 13:51:15;;;;;;;3.20;1.17;;;14.10;99.90;;;;;;5114706;28;20110;-45
2023/10/17 13:53:44;;;;;;;3.83;1.02;;;14.00;99.90;;;;;;5113460;28;20116;-47
2023/10/17 13:56:14;;;;;;;2.78;1.40;;;14.00;99.90;;;;;;5114365;28;20508;-46
2023/10/17 13:58:41;;;;;;;5.03;1.15;;;14.00;99.90;;;;;;5114393;28;20065;-46
2023/10/17 14:01:27;;;;;;;2.83;1.17;;;13.90;99.90;;;;;;5114172;28;20481;-47
2023/10/17 14:03:55;;;;;;;2.20;0.90;;;13.90;99.90;;;;;;5114274;28;20036;-50
2023/10/17 14:06:26;;;;;;;2.42;1.02;;;13.80;99.90;;;;;;5114219;28;20458;-46
2023/10/17 14:08:55;;;;;;;2.83;1.20;;;13.80;99.90;;;;;;5114151;28;20035;-49
2023/10/17 14:11:21;;;;;;;2.87;1.07;;;13.80;99.90;;;;;;5114065;28;20493;-48
2023/10/17 14:13:49;;;;;;;1.98;1.17;;;13.80;99.90;;;;;;5113981;28;20050;-49
2023/10/17 14:16:15;;;;;;;4.80;0.80;;;13.80;99.90;;;;;;5114301;28;20477;-49
2023/10/17 14:18:46;;;;;;;3.40;1.00;;;13.70;99.90;;;;;;5114161;28;20118;-47
2023/10/17 14:22:01;;;;;;;2.67;1.08;;;13.70;99.90;;;;;;5114035;28;20040;-47
2023/10/17 14:24:10;;;;;;;2.30;0.90;;;13.60;99.90;;;;;;5109566;28;20040;-46
2023/10/17 14:26:36;;;;;;;2.47;0.90;;;13.60;99.90;;;;;;5113857;28;20485;-49
2023/10/17 14:29:03;;;;;;;4.60;1.33;;;13.60;99.90;;;;;;5113830;28;20508;-48
2023/10/17 14:31:29;;;;;;;5.47;1.17;;;13.60;99.90;;;;;;5113841;28;20116;-47
2023/10/17 14:33:57;;;;;;;3.95;1.25;;;13.60;99.90;;;;;;5113724;28;20050;-46
2023/10/17 14:36:23;;;;;;;5.27;1.30;;;13.50;99.90;;;;;;5113527;28;20035;-48
2023/10/17 14:38:49;;;;;;;3.38;1.15;;;13.50;99.90;;;;;;5113382;28;20060;-48
2023/10/17 14:41:15;;;;;;;1.75;1.35;;;13.40;99.90;;;;;;5113926;28;20361;-46
2023/10/17 14:43:49;;;;;;;4.13;1.10;;;13.40;99.90;;;;;;5113606;28;20027;-49
2023/10/17 14:46:16;;;;;;;3.05;1.10;;;13.20;99.90;;;;;;5113569;28;20031;-47
2023/10/17 14:48:44;;;;;;;4.35;1.42;;;13.20;99.90;;;;;;5113575;28;20031;-46
2023/10/17 14:51:12;;;;;;;4.78;1.17;;;13.10;99.90;;;;;;5113349;28;20042;-48
2023/10/17 14:53:42;;;;;;;3.50;0.98;;;13.10;99.90;;;;;;5113422;28;20040;-47
2023/10/17 14:56:12;;;;;;;1.40;0.90;;;13.10;99.90;;;;;;5113155;28;20035;-50
2023/10/17 14:58:41;;;;;;;3.35;1.00;;;13.00;99.90;;;;;;5113296;28;20039;-50
2023/10/17 15:01:08;;;;;;;3.67;1.00;;;13.00;99.90;;;;;;5112891;28;20096;-49
2023/10/17 15:03:34;;;;;;;3.15;1.10;;;12.90;99.90;;;;;;5112950;28;20024;-51
2023/10/17 15:06:01;;;;;;;2.63;1.00;;;12.90;99.90;;;;;;5112988;28;20044;-46
2023/10/17 15:08:27;;;;;;;4.60;1.00;;;12.80;99.90;;;;;;5113206;28;20028;-50
2023/10/17 15:10:54;;;;;;;4.88;1.08;;;12.80;99.90;;;;;;5113051;28;20032;-50
2023/10/17 15:13:20;;;;;;;2.40;0.90;;;12.80;99.90;;;;;;5112960;28;20081;-50
2023/10/17 15:15:47;;;;;;;3.40;1.35;;;12.70;99.90;;;;;;5094815;28;20039;-46
2023/10/17 15:18:14;;;;;;;5.32;1.02;;;12.70;99.90;;;;;;5094840;28;20105;-47
2023/10/17 15:20:39;;;;;;;2.88;1.17;;;12.60;99.90;;;;;;5113111;28;20096;-47
2023/10/17 15:23:05;;;;;;;2.38;0.75;;;12.60;99.90;;;;;;5112809;28;20427;-46
2023/10/17 15:25:31;;;;;;;3.28;1.00;;;12.60;99.90;;;;;;5112716;28;20562;-47
2023/10/17 15:27:57;;;;;;;2.22;0.93;;;12.60;99.90;;;;;;5112799;28;20119;-50
2023/10/17 15:30:25;;;;;;;6.65;1.10;;;12.50;99.90;;;;;;5112273;28;20514;-46
2023/10/17 15:32:51;;;;;;;4.80;1.35;;;12.40;99.90;;;;;;5112655;28;20046;-46